Maersk Bulan — 9V7693 — position and weather

sailwx.info

Track history (hours):
 
Tides and Currents Weather Stations Pressure Air Temp Water Temp Dewpoint Dewpoint Depression Visibility Wind Speed Wind Dir Waves Ship Positions

Maersk Bulan

Last reported at 2018-Feb-08 01:29 UTC. Time now 2018-Feb-19 18:16 UTC.
Position N 35°58' W 005°35'.
Warning: this ship's position is 11 days out of date.

Length 223 m; draft 9.5 m.

Type: Ship (hazmat cat A). MMSI: 563455000.

Date/timePositionNaut miles runAvg speedWind from/ knotsBaromVisibWave heightAir tempDewpointWater temp
2018-Feb-08 01:29N 35°58' W 005°35'4 8.1
2018-Feb-08 01:00N 35°59' W 005°30'5 8.8
2018-Feb-08 00:29N 36°01' W 005°25'511.3
2018-Feb-08 00:00N 36°06' W 005°24'3 5.3
2018-Feb-07 23:28N 36°09' W 005°26'0 0.0
2018-Feb-07 07:00N 36°09' W 005°26'0 0.0
2018-Feb-07 05:48N 36°09' W 005°26'0 0.1
2018-Feb-07 05:30N 36°09' W 005°26'0 0.0
2018-Feb-07 05:00N 36°09' W 005°26'0 0.0
2018-Feb-07 04:30N 36°09' W 005°26'0 0.0
2018-Feb-07 04:00N 36°09' W 005°26'0 0.0
2018-Feb-07 03:30N 36°09' W 005°26'0 0.0
2018-Feb-07 02:54N 36°09' W 005°26'0 0.0
2018-Feb-07 02:30N 36°09' W 005°26'0 0.0
2018-Feb-07 01:54N 36°09' W 005°26'0 0.0
2018-Feb-07 01:30N 36°09' W 005°26'0 0.0
2018-Feb-07 00:42N 36°09' W 005°26'0 0.0
2018-Feb-07 00:24N 36°09' W 005°26'0 0.0
2018-Feb-07 00:00N 36°09' W 005°26'2 2.9
2018-Feb-06 23:22N 36°08' W 005°24'2 3.3
2018-Feb-06 22:46N 36°06' W 005°23'310.4
2018-Feb-06 22:30N 36°04' W 005°21'612.0
2018-Feb-06 22:00N 36°03' W 005°14'  
2018-Feb-02 04:38N 36°36' E 013°53'110.6
2018-Feb-02 04:30N 36°36' E 013°55'510.5
2018-Feb-02 03:59N 36°34' E 014°01'510.6
2018-Feb-02 03:30N 36°32' E 014°07'510.6
2018-Feb-02 03:00N 36°31' E 014°13'510.3
2018-Feb-02 02:30N 36°29' E 014°19'510.6
2018-Feb-02 02:00N 36°27' E 014°26'510.8
2018-Feb-02 01:30N 36°26' E 014°32'5 9.9
2018-Feb-02 00:59N 36°24' E 014°38'510.1
2018-Feb-02 00:30N 36°23' E 014°44'5 9.8
2018-Feb-02 00:00N 36°22' E 014°50'5 9.8
2018-Feb-01 23:30N 36°20' E 014°56'  
2018-Jan-29 06:41N 40°44' E 028°54'2 9.8
2018-Jan-29 06:30N 40°44' E 028°57'510.3
2018-Jan-29 06:00N 40°45' E 029°04'510.9
2018-Jan-29 05:30N 40°44' E 029°11'510.8
2018-Jan-29 05:00N 40°44' E 029°18'4 7.3
2018-Jan-29 04:30N 40°44' E 029°23'511.0
2018-Jan-29 04:00N 40°45' E 029°30'611.3
2018-Jan-29 03:30N 40°45' E 029°37'  
Track history (hours):
 
Tides and Currents Weather Stations Pressure Air Temp Water Temp Dewpoint Dewpoint Depression Visibility Wind Speed Wind Dir Waves Ship Positions

Maersk Bulan

Last reported at 2018-Feb-08 01:29 UTC. Time now 2018-Feb-19 18:16 UTC.
Position N 35°58' W 005°35'.
Warning: this ship's position is 11 days out of date.

Length 223 m; draft 9.5 m.

Type: Ship (hazmat cat A). MMSI: 563455000.

Date/timePositionNaut miles runAvg speedWind from/ knotsBaromVisibWave heightAir tempDewpointWater temp
2018-Feb-08 01:29N 35°58' W 005°35'4 8.1
2018-Feb-08 01:00N 35°59' W 005°30'5 8.8
2018-Feb-08 00:29N 36°01' W 005°25'511.3
2018-Feb-08 00:00N 36°06' W 005°24'3 5.3
2018-Feb-07 23:28N 36°09' W 005°26'0 0.0
2018-Feb-07 07:00N 36°09' W 005°26'0 0.0
2018-Feb-07 05:48N 36°09' W 005°26'0 0.1
2018-Feb-07 05:30N 36°09' W 005°26'0 0.0
2018-Feb-07 05:00N 36°09' W 005°26'0 0.0
2018-Feb-07 04:30N 36°09' W 005°26'0 0.0
2018-Feb-07 04:00N 36°09' W 005°26'0 0.0
2018-Feb-07 03:30N 36°09' W 005°26'0 0.0
2018-Feb-07 02:54N 36°09' W 005°26'0 0.0
2018-Feb-07 02:30N 36°09' W 005°26'0 0.0
2018-Feb-07 01:54N 36°09' W 005°26'0 0.0
2018-Feb-07 01:30N 36°09' W 005°26'0 0.0
2018-Feb-07 00:42N 36°09' W 005°26'0 0.0
2018-Feb-07 00:24N 36°09' W 005°26'0 0.0
2018-Feb-07 00:00N 36°09' W 005°26'2 2.9
2018-Feb-06 23:22N 36°08' W 005°24'2 3.3
2018-Feb-06 22:46N 36°06' W 005°23'310.4
2018-Feb-06 22:30N 36°04' W 005°21'612.0
2018-Feb-06 22:00N 36°03' W 005°14'  
2018-Feb-02 04:38N 36°36' E 013°53'110.6
2018-Feb-02 04:30N 36°36' E 013°55'510.5
2018-Feb-02 03:59N 36°34' E 014°01'510.6
2018-Feb-02 03:30N 36°32' E 014°07'510.6
2018-Feb-02 03:00N 36°31' E 014°13'510.3
2018-Feb-02 02:30N 36°29' E 014°19'510.6
2018-Feb-02 02:00N 36°27' E 014°26'510.8
2018-Feb-02 01:30N 36°26' E 014°32'5 9.9
2018-Feb-02 00:59N 36°24' E 014°38'510.1
2018-Feb-02 00:30N 36°23' E 014°44'5 9.8
2018-Feb-02 00:00N 36°22' E 014°50'5 9.8
2018-Feb-01 23:30N 36°20' E 014°56'  
2018-Jan-29 06:41N 40°44' E 028°54'2 9.8
2018-Jan-29 06:30N 40°44' E 028°57'510.3
2018-Jan-29 06:00N 40°45' E 029°04'510.9
2018-Jan-29 05:30N 40°44' E 029°11'510.8
2018-Jan-29 05:00N 40°44' E 029°18'4 7.3
2018-Jan-29 04:30N 40°44' E 029°23'511.0
2018-Jan-29 04:00N 40°45' E 029°30'611.3
2018-Jan-29 03:30N 40°45' E 029°37'  

Dump ship's entire track history